sensor_id;sensor_type;location;lat;lon;timestamp;temperature;humidity
24470;DHT22;12635;50.852;5.676;2023-04-23T00:01:50;8.90;99.90
24470;DHT22;12635;50.852;5.676;2023-04-23T00:04:17;9.00;99.90
24470;DHT22;12635;50.852;5.676;2023-04-23T00:06:46;9.00;99.90
24470;DHT22;12635;50.852;5.676;2023-04-23T00:09:14;8.90;99.90
24470;DHT22;12635;50.852;5.676;2023-04-23T00:11:41;8.90;99.90
24470;DHT22;12635;50.852;5.676;2023-04-23T00:14:10;8.80;99.90
24470;DHT22;12635;50.852;5.676;2023-04-23T00:16:37;8.70;99.90
24470;DHT22;12635;50.852;5.676;2023-04-23T00:19:04;8.70;99.90
24470;DHT22;12635;50.852;5.676;2023-04-23T00:21:31;8.70;99.90
24470;DHT22;12635;50.852;5.676;2023-04-23T00:23:58;8.70;99.90
24470;DHT22;12635;50.852;5.676;2023-04-23T00:26:25;8.70;99.90
24470;DHT22;12635;50.852;5.676;2023-04-23T00:28:52;8.70;99.90
24470;DHT22;12635;50.852;5.676;2023-04-23T00:31:20;8.70;99.90
24470;DHT22;12635;50.852;5.676;2023-04-23T00:33:48;8.80;99.90
24470;DHT22;12635;50.852;5.676;2023-04-23T00:36:15;8.80;99.90
24470;DHT22;12635;50.852;5.676;2023-04-23T00:38:42;8.80;99.90
24470;DHT22;12635;50.852;5.676;2023-04-23T00:41:10;8.90;99.90
24470;DHT22;12635;50.852;5.676;2023-04-23T00:43:36;9.00;99.90
24470;DHT22;12635;50.852;5.676;2023-04-23T00:46:03;9.00;99.90
24470;DHT22;12635;50.852;5.676;2023-04-23T00:48:32;9.00;99.90
24470;DHT22;12635;50.852;5.676;2023-04-23T00:51:02;8.90;99.90
24470;DHT22;12635;50.852;5.676;2023-04-23T00:53:29;8.90;99.90
24470;DHT22;12635;50.852;5.676;2023-04-23T00:55:56;8.90;99.90
24470;DHT22;12635;50.852;5.676;2023-04-23T00:58:23;8.90;99.90
24470;DHT22;12635;50.852;5.676;2023-04-23T01:00:50;8.90;99.90
24470;DHT22;12635;50.852;5.676;2023-04-23T01:03:17;8.90;99.90
24470;DHT22;12635;50.852;5.676;2023-04-23T01:05:47;8.80;99.90
24470;DHT22;12635;50.852;5.676;2023-04-23T01:08:15;8.80;99.90
24470;DHT22;12635;50.852;5.676;2023-04-23T01:10:42;8.80;99.90
24470;DHT22;12635;50.852;5.676;2023-04-23T01:13:10;8.70;99.90
24470;DHT22;12635;50.852;5.676;2023-04-23T01:15:37;8.80;99.90
24470;DHT22;12635;50.852;5.676;2023-04-23T01:18:04;8.80;99.90
24470;DHT22;12635;50.852;5.676;2023-04-23T01:20:32;8.70;99.90
24470;DHT22;12635;50.852;5.676;2023-04-23T01:23:01;8.80;99.90
24470;DHT22;12635;50.852;5.676;2023-04-23T01:25:28;8.80;99.90
24470;DHT22;12635;50.852;5.676;2023-04-23T01:27:55;8.90;99.90
24470;DHT22;12635;50.852;5.676;2023-04-23T01:30:22;8.90;99.90
24470;DHT22;12635;50.852;5.676;2023-04-23T01:32:49;8.90;99.90
24470;DHT22;12635;50.852;5.676;2023-04-23T01:35:16;9.00;99.90
24470;DHT22;12635;50.852;5.676;2023-04-23T01:37:43;9.00;99.90
24470;DHT22;12635;50.852;5.676;2023-04-23T01:40:12;9.10;99.90
24470;DHT22;12635;50.852;5.676;2023-04-23T01:42:39;9.10;99.90
24470;DHT22;12635;50.852;5.676;2023-04-23T01:45:06;9.20;99.90
24470;DHT22;12635;50.852;5.676;2023-04-23T01:47:33;9.20;99.90
24470;DHT22;12635;50.852;5.676;2023-04-23T01:50:00;9.20;99.90
24470;DHT22;12635;50.852;5.676;2023-04-23T01:52:29;9.30;99.90
24470;DHT22;12635;50.852;5.676;2023-04-23T01:54:56;9.30;99.90
24470;DHT22;12635;50.852;5.676;2023-04-23T01:57:24;9.30;99.90
24470;DHT22;12635;50.852;5.676;2023-04-23T01:59:51;9.40;99.90
24470;DHT22;12635;50.852;5.676;2023-04-23T02:02:18;9.40;99.90
24470;DHT22;12635;50.852;5.676;2023-04-23T02:04:45;9.40;99.90
24470;DHT22;12635;50.852;5.676;2023-04-23T02:07:13;9.50;99.90
24470;DHT22;12635;50.852;5.676;2023-04-23T02:09:40;9.50;99.90
24470;DHT22;12635;50.852;5.676;2023-04-23T02:12:07;9.60;99.90
24470;DHT22;12635;50.852;5.676;2023-04-23T02:14:35;9.60;99.90
24470;DHT22;12635;50.852;5.676;2023-04-23T02:17:02;9.60;99.90
24470;DHT22;12635;50.852;5.676;2023-04-23T02:19:29;9.70;99.90
24470;DHT22;12635;50.852;5.676;2023-04-23T02:21:59;9.70;99.90
24470;DHT22;12635;50.852;5.676;2023-04-23T02:24:26;9.80;99.90
24470;DHT22;12635;50.852;5.676;2023-04-23T02:26:52;9.90;99.90
24470;DHT22;12635;50.852;5.676;2023-04-23T02:29:19;9.80;99.90
24470;DHT22;12635;50.852;5.676;2023-04-23T02:31:48;9.90;99.90
24470;DHT22;12635;50.852;5.676;2023-04-23T02:34:15;9.90;99.90
24470;DHT22;12635;50.852;5.676;2023-04-23T02:36:41;10.00;99.90
24470;DHT22;12635;50.852;5.676;2023-04-23T02:39:08;10.00;99.90
24470;DHT22;12635;50.852;5.676;2023-04-23T02:41:35;10.00;99.90
24470;DHT22;12635;50.852;5.676;2023-04-23T02:44:02;10.00;99.90
24470;DHT22;12635;50.852;5.676;2023-04-23T02:46:29;10.00;99.90
24470;DHT22;12635;50.852;5.676;2023-04-23T02:48:57;9.90;99.90
24470;DHT22;12635;50.852;5.676;2023-04-23T02:51:24;9.90;99.90
24470;DHT22;12635;50.852;5.676;2023-04-23T02:53:51;10.00;99.90
24470;DHT22;12635;50.852;5.676;2023-04-23T02:56:18;10.00;99.90
24470;DHT22;12635;50.852;5.676;2023-04-23T02:58:45;10.00;99.90
24470;DHT22;12635;50.852;5.676;2023-04-23T03:01:12;10.00;99.90
24470;DHT22;12635;50.852;5.676;2023-04-23T03:03:39;10.00;99.90
24470;DHT22;12635;50.852;5.676;2023-04-23T03:06:07;10.00;99.90
24470;DHT22;12635;50.852;5.676;2023-04-23T03:08:34;10.00;99.90
24470;DHT22;12635;50.852;5.676;2023-04-23T03:11:01;10.00;99.90
24470;DHT22;12635;50.852;5.676;2023-04-23T03:13:28;10.00;99.90
24470;DHT22;12635;50.852;5.676;2023-04-23T03:15:55;10.00;99.90
24470;DHT22;12635;50.852;5.676;2023-04-23T03:18:21;10.10;99.90
24470;DHT22;12635;50.852;5.676;2023-04-23T03:20:48;10.10;99.90
24470;DHT22;12635;50.852;5.676;2023-04-23T03:23:17;10.10;99.90
24470;DHT22;12635;50.852;5.676;2023-04-23T03:25:43;10.10;99.90
24470;DHT22;12635;50.852;5.676;2023-04-23T03:28:10;10.10;99.90
24470;DHT22;12635;50.852;5.676;2023-04-23T03:30:37;10.10;99.90
24470;DHT22;12635;50.852;5.676;2023-04-23T03:33:04;10.20;99.90
24470;DHT22;12635;50.852;5.676;2023-04-23T03:35:31;10.20;99.90
24470;DHT22;12635;50.852;5.676;2023-04-23T03:37:57;10.20;99.90
24470;DHT22;12635;50.852;5.676;2023-04-23T03:40:26;10.30;99.90
24470;DHT22;12635;50.852;5.676;2023-04-23T03:42:52;10.30;99.90
24470;DHT22;12635;50.852;5.676;2023-04-23T03:45:19;10.30;99.90
24470;DHT22;12635;50.852;5.676;2023-04-23T03:47:46;10.30;99.90
24470;DHT22;12635;50.852;5.676;2023-04-23T03:50:13;10.40;99.90
24470;DHT22;12635;50.852;5.676;2023-04-23T03:52:41;10.40;99.90
24470;DHT22;12635;50.852;5.676;2023-04-23T03:55:08;10.50;99.90
24470;DHT22;12635;50.852;5.676;2023-04-23T03:57:37;10.50;99.90
24470;DHT22;12635;50.852;5.676;2023-04-23T04:00:04;10.50;99.90
24470;DHT22;12635;50.852;5.676;2023-04-23T04:02:32;10.50;99.90
24470;DHT22;12635;50.852;5.676;2023-04-23T04:04:59;10.50;99.90
24470;DHT22;12635;50.852;5.676;2023-04-23T04:07:26;10.50;99.90
24470;DHT22;12635;50.852;5.676;2023-04-23T04:09:53;10.60;99.90
24470;DHT22;12635;50.852;5.676;2023-04-23T04:12:20;10.60;99.90
24470;DHT22;12635;50.852;5.676;2023-04-23T04:14:48;10.70;99.90
24470;DHT22;12635;50.852;5.676;2023-04-23T04:17:15;10.70;99.90
24470;DHT22;12635;50.852;5.676;2023-04-23T04:19:42;10.60;99.90
24470;DHT22;12635;50.852;5.676;2023-04-23T04:22:09;10.70;99.90
24470;DHT22;12635;50.852;5.676;2023-04-23T04:24:36;10.70;99.90
24470;DHT22;12635;50.852;5.676;2023-04-23T04:27:03;10.70;99.90
24470;DHT22;12635;50.852;5.676;2023-04-23T04:29:30;10.70;99.90
24470;DHT22;12635;50.852;5.676;2023-04-23T04:31:59;10.70;99.90
24470;DHT22;12635;50.852;5.676;2023-04-23T04:34:27;10.70;99.90
24470;DHT22;12635;50.852;5.676;2023-04-23T04:36:53;10.80;99.90
24470;DHT22;12635;50.852;5.676;2023-04-23T04:39:20;10.70;99.90
24470;DHT22;12635;50.852;5.676;2023-04-23T04:41:47;10.70;99.90
24470;DHT22;12635;50.852;5.676;2023-04-23T04:44:14;10.70;99.90
24470;DHT22;12635;50.852;5.676;2023-04-23T04:46:41;10.70;99.90
24470;DHT22;12635;50.852;5.676;2023-04-23T04:49:10;10.60;99.90
24470;DHT22;12635;50.852;5.676;2023-04-23T04:51:37;10.60;99.90
24470;DHT22;12635;50.852;5.676;2023-04-23T04:54:05;10.70;99.90
24470;DHT22;12635;50.852;5.676;2023-04-23T04:56:32;10.70;99.90
24470;DHT22;12635;50.852;5.676;2023-04-23T04:58:58;10.70;99.90
24470;DHT22;12635;50.852;5.676;2023-04-23T05:01:25;10.70;99.90
24470;DHT22;12635;50.852;5.676;2023-04-23T05:03:53;10.80;99.90
24470;DHT22;12635;50.852;5.676;2023-04-23T05:06:21;10.80;99.90
24470;DHT22;12635;50.852;5.676;2023-04-23T05:08:48;10.80;99.90
24470;DHT22;12635;50.852;5.676;2023-04-23T05:11:15;10.80;99.90
24470;DHT22;12635;50.852;5.676;2023-04-23T05:13:42;10.80;99.90
24470;DHT22;12635;50.852;5.676;2023-04-23T05:16:09;10.80;99.90
24470;DHT22;12635;50.852;5.676;2023-04-23T05:18:36;10.80;99.90
24470;DHT22;12635;50.852;5.676;2023-04-23T05:21:03;10.80;99.90
24470;DHT22;12635;50.852;5.676;2023-04-23T05:23:32;10.70;99.90
24470;DHT22;12635;50.852;5.676;2023-04-23T05:25:58;10.80;99.90
24470;DHT22;12635;50.852;5.676;2023-04-23T05:28:28;10.80;99.90
24470;DHT22;12635;50.852;5.676;2023-04-23T05:30:55;10.80;99.90
24470;DHT22;12635;50.852;5.676;2023-04-23T05:33:22;10.70;99.90
24470;DHT22;12635;50.852;5.676;2023-04-23T05:35:48;10.70;99.90
24470;DHT22;12635;50.852;5.676;2023-04-23T05:38:15;10.80;99.90
24470;DHT22;12635;50.852;5.676;2023-04-23T05:40:43;10.90;99.90
24470;DHT22;12635;50.852;5.676;2023-04-23T05:43:10;11.10;99.90
24470;DHT22;12635;50.852;5.676;2023-04-23T05:45:37;11.20;99.90
24470;DHT22;12635;50.852;5.676;2023-04-23T05:48:04;11.40;99.90
24470;DHT22;12635;50.852;5.676;2023-04-23T05:50:31;11.70;99.90
24470;DHT22;12635;50.852;5.676;2023-04-23T05:52:58;12.10;99.90
24470;DHT22;12635;50.852;5.676;2023-04-23T05:55:24;12.30;99.90
24470;DHT22;12635;50.852;5.676;2023-04-23T05:57:53;12.30;99.90
24470;DHT22;12635;50.852;5.676;2023-04-23T06:00:19;12.10;99.90
24470;DHT22;12635;50.852;5.676;2023-04-23T06:02:46;12.10;99.90
24470;DHT22;12635;50.852;5.676;2023-04-23T06:05:13;12.10;99.90
24470;DHT22;12635;50.852;5.676;2023-04-23T06:07:40;12.00;99.90
24470;DHT22;12635;50.852;5.676;2023-04-23T06:10:07;11.90;99.90
24470;DHT22;12635;50.852;5.676;2023-04-23T06:12:35;11.90;99.90
24470;DHT22;12635;50.852;5.676;2023-04-23T06:15:06;12.00;99.90
24470;DHT22;12635;50.852;5.676;2023-04-23T06:17:33;12.70;99.90
24470;DHT22;12635;50.852;5.676;2023-04-23T06:20:00;13.30;99.90
24470;DHT22;12635;50.852;5.676;2023-04-23T06:22:29;13.20;99.90
24470;DHT22;12635;50.852;5.676;2023-04-23T06:24:56;13.10;99.90
24470;DHT22;12635;50.852;5.676;2023-04-23T06:27:23;13.70;99.90
24470;DHT22;12635;50.852;5.676;2023-04-23T06:29:51;14.30;99.90
24470;DHT22;12635;50.852;5.676;2023-04-23T06:32:20;14.90;99.90
24470;DHT22;12635;50.852;5.676;2023-04-23T06:34:46;15.10;99.90
24470;DHT22;12635;50.852;5.676;2023-04-23T06:37:13;15.20;99.90
24470;DHT22;12635;50.852;5.676;2023-04-23T06:39:40;15.40;99.90
24470;DHT22;12635;50.852;5.676;2023-04-23T06:42:07;15.70;99.90
24470;DHT22;12635;50.852;5.676;2023-04-23T06:44:34;16.00;99.90
24470;DHT22;12635;50.852;5.676;2023-04-23T06:47:01;16.00;99.90
24470;DHT22;12635;50.852;5.676;2023-04-23T06:49:29;15.80;99.90
24470;DHT22;12635;50.852;5.676;2023-04-23T06:51:56;16.00;99.90
24470;DHT22;12635;50.852;5.676;2023-04-23T06:54:22;16.20;99.90
24470;DHT22;12635;50.852;5.676;2023-04-23T06:56:49;16.90;99.90
24470;DHT22;12635;50.852;5.676;2023-04-23T06:59:16;17.60;99.90
24470;DHT22;12635;50.852;5.676;2023-04-23T07:01:43;18.10;99.90
24470;DHT22;12635;50.852;5.676;2023-04-23T07:04:10;18.20;99.90
24470;DHT22;12635;50.852;5.676;2023-04-23T07:06:39;17.30;99.90
24470;DHT22;12635;50.852;5.676;2023-04-23T07:09:05;17.40;99.90
24470;DHT22;12635;50.852;5.676;2023-04-23T07:11:32;17.90;99.90
24470;DHT22;12635;50.852;5.676;2023-04-23T07:14:01;17.60;99.90
24470;DHT22;12635;50.852;5.676;2023-04-23T07:16:27;17.40;99.90
24470;DHT22;12635;50.852;5.676;2023-04-23T07:18:57;17.10;99.90
24470;DHT22;12635;50.852;5.676;2023-04-23T07:21:25;17.30;99.90
24470;DHT22;12635;50.852;5.676;2023-04-23T07:23:55;17.40;99.90
24470;DHT22;12635;50.852;5.676;2023-04-23T07:26:23;17.60;99.90
24470;DHT22;12635;50.852;5.676;2023-04-23T07:28:49;17.40;99.90
24470;DHT22;12635;50.852;5.676;2023-04-23T07:31:16;17.80;99.90
24470;DHT22;12635;50.852;5.676;2023-04-23T07:33:43;18.10;99.90
24470;DHT22;12635;50.852;5.676;2023-04-23T07:36:10;18.30;99.90
24470;DHT22;12635;50.852;5.676;2023-04-23T07:38:37;18.20;99.90
24470;DHT22;12635;50.852;5.676;2023-04-23T07:41:05;18.50;99.90
24470;DHT22;12635;50.852;5.676;2023-04-23T07:43:32;18.70;99.90
24470;DHT22;12635;50.852;5.676;2023-04-23T07:45:59;18.50;99.90
24470;DHT22;12635;50.852;5.676;2023-04-23T07:48:26;18.80;99.90
24470;DHT22;12635;50.852;5.676;2023-04-23T07:50:53;19.50;99.90
24470;DHT22;12635;50.852;5.676;2023-04-23T07:53:21;19.60;99.90
24470;DHT22;12635;50.852;5.676;2023-04-23T07:55:47;18.90;99.90
24470;DHT22;12635;50.852;5.676;2023-04-23T07:58:16;18.90;99.90
24470;DHT22;12635;50.852;5.676;2023-04-23T08:00:43;18.70;99.90
24470;DHT22;12635;50.852;5.676;2023-04-23T08:03:10;19.30;99.90
24470;DHT22;12635;50.852;5.676;2023-04-23T08:05:36;19.60;99.90
24470;DHT22;12635;50.852;5.676;2023-04-23T08:08:05;19.90;99.90
24470;DHT22;12635;50.852;5.676;2023-04-23T08:10:32;19.20;99.90
24470;DHT22;12635;50.852;5.676;2023-04-23T08:12:59;18.90;99.90
24470;DHT22;12635;50.852;5.676;2023-04-23T08:15:27;18.30;99.90
24470;DHT22;12635;50.852;5.676;2023-04-23T08:17:54;18.10;99.90
24470;DHT22;12635;50.852;5.676;2023-04-23T08:20:21;18.50;99.90
24470;DHT22;12635;50.852;5.676;2023-04-23T08:22:48;19.30;99.90
24470;DHT22;12635;50.852;5.676;2023-04-23T08:25:18;19.20;99.90
24470;DHT22;12635;50.852;5.676;2023-04-23T08:27:45;19.60;99.90
24470;DHT22;12635;50.852;5.676;2023-04-23T08:30:12;19.70;99.90
24470;DHT22;12635;50.852;5.676;2023-04-23T08:32:40;19.60;99.90
24470;DHT22;12635;50.852;5.676;2023-04-23T08:35:07;20.20;99.90
24470;DHT22;12635;50.852;5.676;2023-04-23T08:37:34;20.30;99.90
24470;DHT22;12635;50.852;5.676;2023-04-23T08:40:03;20.60;99.90
24470;DHT22;12635;50.852;5.676;2023-04-23T08:42:34;20.40;99.90
24470;DHT22;12635;50.852;5.676;2023-04-23T08:45:03;19.70;99.90
24470;DHT22;12635;50.852;5.676;2023-04-23T08:47:30;19.10;99.90
24470;DHT22;12635;50.852;5.676;2023-04-23T08:49:59;18.50;99.90
24470;DHT22;12635;50.852;5.676;2023-04-23T08:52:26;18.60;99.90
24470;DHT22;12635;50.852;5.676;2023-04-23T08:54:57;18.30;99.90
24470;DHT22;12635;50.852;5.676;2023-04-23T08:57:25;18.50;99.90
24470;DHT22;12635;50.852;5.676;2023-04-23T08:59:52;18.60;99.90
24470;DHT22;12635;50.852;5.676;2023-04-23T09:02:19;19.00;99.90
24470;DHT22;12635;50.852;5.676;2023-04-23T09:04:46;18.70;99.90
24470;DHT22;12635;50.852;5.676;2023-04-23T09:07:15;18.60;99.90
24470;DHT22;12635;50.852;5.676;2023-04-23T09:09:42;18.00;99.90
24470;DHT22;12635;50.852;5.676;2023-04-23T09:12:09;17.80;99.90
24470;DHT22;12635;50.852;5.676;2023-04-23T09:14:35;17.60;99.90
24470;DHT22;12635;50.852;5.676;2023-04-23T09:17:02;18.10;99.90
24470;DHT22;12635;50.852;5.676;2023-04-23T09:19:29;17.90;99.90
24470;DHT22;12635;50.852;5.676;2023-04-23T09:21:57;18.20;99.90
24470;DHT22;12635;50.852;5.676;2023-04-23T09:24:26;18.60;99.90
24470;DHT22;12635;50.852;5.676;2023-04-23T09:26:56;18.30;99.90
24470;DHT22;12635;50.852;5.676;2023-04-23T09:29:23;17.50;99.90
24470;DHT22;12635;50.852;5.676;2023-04-23T09:31:51;17.20;99.90
24470;DHT22;12635;50.852;5.676;2023-04-23T09:34:18;17.30;99.90
24470;DHT22;12635;50.852;5.676;2023-04-23T09:36:46;17.20;99.90
24470;DHT22;12635;50.852;5.676;2023-04-23T09:39:14;17.00;99.90
24470;DHT22;12635;50.852;5.676;2023-04-23T09:41:43;16.80;99.90
24470;DHT22;12635;50.852;5.676;2023-04-23T09:44:10;16.60;99.90
24470;DHT22;12635;50.852;5.676;2023-04-23T09:46:38;17.00;99.90
24470;DHT22;12635;50.852;5.676;2023-04-23T09:49:06;17.70;99.90
24470;DHT22;12635;50.852;5.676;2023-04-23T09:51:34;17.20;99.90
24470;DHT22;12635;50.852;5.676;2023-04-23T09:54:01;16.80;99.90
24470;DHT22;12635;50.852;5.676;2023-04-23T09:56:29;16.60;99.90
24470;DHT22;12635;50.852;5.676;2023-04-23T09:58:57;16.30;99.90
24470;DHT22;12635;50.852;5.676;2023-04-23T10:01:27;16.10;99.90
24470;DHT22;12635;50.852;5.676;2023-04-23T10:03:55;16.20;99.90
24470;DHT22;12635;50.852;5.676;2023-04-23T10:06:28;16.60;99.90
24470;DHT22;12635;50.852;5.676;2023-04-23T10:08:56;16.80;99.90
24470;DHT22;12635;50.852;5.676;2023-04-23T10:11:23;16.80;99.90
24470;DHT22;12635;50.852;5.676;2023-04-23T10:13:50;16.50;99.90
24470;DHT22;12635;50.852;5.676;2023-04-23T10:16:21;16.60;99.90
24470;DHT22;12635;50.852;5.676;2023-04-23T10:18:48;17.00;99.90
24470;DHT22;12635;50.852;5.676;2023-04-23T10:21:16;17.40;99.90
24470;DHT22;12635;50.852;5.676;2023-04-23T10:23:43;17.30;99.90
24470;DHT22;12635;50.852;5.676;2023-04-23T10:26:12;17.20;99.90
24470;DHT22;12635;50.852;5.676;2023-04-23T10:28:40;17.30;99.90
24470;DHT22;12635;50.852;5.676;2023-04-23T10:31:09;17.20;99.90
24470;DHT22;12635;50.852;5.676;2023-04-23T10:33:38;17.10;99.90
24470;DHT22;12635;50.852;5.676;2023-04-23T10:36:05;17.40;99.90
24470;DHT22;12635;50.852;5.676;2023-04-23T10:38:34;17.80;99.90
24470;DHT22;12635;50.852;5.676;2023-04-23T10:41:02;17.60;99.90
24470;DHT22;12635;50.852;5.676;2023-04-23T10:43:29;17.80;99.90
24470;DHT22;12635;50.852;5.676;2023-04-23T10:45:56;18.20;99.90
24470;DHT22;12635;50.852;5.676;2023-04-23T10:48:22;18.20;99.90
24470;DHT22;12635;50.852;5.676;2023-04-23T10:50:57;18.20;99.90
24470;DHT22;12635;50.852;5.676;2023-04-23T10:53:24;18.10;99.90
24470;DHT22;12635;50.852;5.676;2023-04-23T10:56:03;18.10;99.90
24470;DHT22;12635;50.852;5.676;2023-04-23T10:58:41;18.00;99.90
24470;DHT22;12635;50.852;5.676;2023-04-23T11:01:13;17.80;99.90
24470;DHT22;12635;50.852;5.676;2023-04-23T11:03:40;17.60;99.90
24470;DHT22;12635;50.852;5.676;2023-04-23T11:06:10;17.50;99.90
24470;DHT22;12635;50.852;5.676;2023-04-23T11:08:40;17.20;99.90
24470;DHT22;12635;50.852;5.676;2023-04-23T11:11:16;17.50;99.90
24470;DHT22;12635;50.852;5.676;2023-04-23T11:13:50;17.60;99.90
24470;DHT22;12635;50.852;5.676;2023-04-23T11:16:19;17.70;99.90
24470;DHT22;12635;50.852;5.676;2023-04-23T11:18:59;17.90;99.90
24470;DHT22;12635;50.852;5.676;2023-04-23T11:24:15;18.10;99.90
24470;DHT22;12635;50.852;5.676;2023-04-23T11:26:42;18.20;99.90
24470;DHT22;12635;50.852;5.676;2023-04-23T11:29:09;17.90;99.90
24470;DHT22;12635;50.852;5.676;2023-04-23T11:31:39;18.20;99.90
24470;DHT22;12635;50.852;5.676;2023-04-23T11:34:08;18.30;99.90
24470;DHT22;12635;50.852;5.676;2023-04-23T11:36:36;18.20;99.90
24470;DHT22;12635;50.852;5.676;2023-04-23T11:39:03;18.30;99.90
24470;DHT22;12635;50.852;5.676;2023-04-23T11:41:32;18.30;99.90
24470;DHT22;12635;50.852;5.676;2023-04-23T11:43:59;18.90;99.90
24470;DHT22;12635;50.852;5.676;2023-04-23T11:46:26;19.90;99.90
24470;DHT22;12635;50.852;5.676;2023-04-23T11:48:53;20.30;99.90
24470;DHT22;12635;50.852;5.676;2023-04-23T11:51:23;19.70;99.90
24470;DHT22;12635;50.852;5.676;2023-04-23T11:53:50;19.30;99.90
24470;DHT22;12635;50.852;5.676;2023-04-23T11:56:17;19.00;99.90
24470;DHT22;12635;50.852;5.676;2023-04-23T11:58:46;19.10;99.90
24470;DHT22;12635;50.852;5.676;2023-04-23T12:01:13;19.60;99.90
24470;DHT22;12635;50.852;5.676;2023-04-23T12:03:40;19.40;99.90
24470;DHT22;12635;50.852;5.676;2023-04-23T12:06:15;18.70;99.90
24470;DHT22;12635;50.852;5.676;2023-04-23T12:08:42;18.20;99.90
24470;DHT22;12635;50.852;5.676;2023-04-23T12:11:11;17.90;99.90
24470;DHT22;12635;50.852;5.676;2023-04-23T12:13:39;17.60;99.90
24470;DHT22;12635;50.852;5.676;2023-04-23T12:16:08;17.50;99.90
24470;DHT22;12635;50.852;5.676;2023-04-23T12:18:38;17.20;99.90
24470;DHT22;12635;50.852;5.676;2023-04-23T12:21:06;17.40;99.90
24470;DHT22;12635;50.852;5.676;2023-04-23T12:23:34;17.50;99.90
24470;DHT22;12635;50.852;5.676;2023-04-23T12:26:02;17.50;99.90
24470;DHT22;12635;50.852;5.676;2023-04-23T12:28:29;17.50;99.90
24470;DHT22;12635;50.852;5.676;2023-04-23T12:30:58;17.70;99.90
24470;DHT22;12635;50.852;5.676;2023-04-23T12:33:28;17.60;99.90
24470;DHT22;12635;50.852;5.676;2023-04-23T12:35:55;17.50;99.90
24470;DHT22;12635;50.852;5.676;2023-04-23T12:38:23;17.30;99.90
24470;DHT22;12635;50.852;5.676;2023-04-23T12:40:50;17.20;99.90
24470;DHT22;12635;50.852;5.676;2023-04-23T12:43:16;17.20;99.90
24470;DHT22;12635;50.852;5.676;2023-04-23T12:45:43;17.20;99.90
24470;DHT22;12635;50.852;5.676;2023-04-23T12:48:10;16.70;99.90
24470;DHT22;12635;50.852;5.676;2023-04-23T12:50:39;16.60;99.90
24470;DHT22;12635;50.852;5.676;2023-04-23T12:53:06;16.60;99.90
24470;DHT22;12635;50.852;5.676;2023-04-23T12:55:33;16.80;99.90
24470;DHT22;12635;50.852;5.676;2023-04-23T12:58:00;16.90;99.90
24470;DHT22;12635;50.852;5.676;2023-04-23T13:00:27;16.70;99.90
24470;DHT22;12635;50.852;5.676;2023-04-23T13:02:54;16.00;99.90
24470;DHT22;12635;50.852;5.676;2023-04-23T13:05:21;14.50;99.90
24470;DHT22;12635;50.852;5.676;2023-04-23T13:07:49;13.80;99.90
24470;DHT22;12635;50.852;5.676;2023-04-23T13:10:18;13.50;99.90
24470;DHT22;12635;50.852;5.676;2023-04-23T13:12:44;13.50;99.90
24470;DHT22;12635;50.852;5.676;2023-04-23T13:15:11;13.50;99.90
24470;DHT22;12635;50.852;5.676;2023-04-23T13:17:38;13.50;99.90
24470;DHT22;12635;50.852;5.676;2023-04-23T13:20:06;13.50;99.90
24470;DHT22;12635;50.852;5.676;2023-04-23T13:22:33;13.50;99.90
24470;DHT22;12635;50.852;5.676;2023-04-23T13:25:01;13.50;99.90
24470;DHT22;12635;50.852;5.676;2023-04-23T13:27:28;13.40;99.90
24470;DHT22;12635;50.852;5.676;2023-04-23T13:29:55;13.40;99.90
24470;DHT22;12635;50.852;5.676;2023-04-23T13:32:23;13.30;99.90
24470;DHT22;12635;50.852;5.676;2023-04-23T13:34:51;13.30;99.90
24470;DHT22;12635;50.852;5.676;2023-04-23T13:37:18;13.30;99.90
24470;DHT22;12635;50.852;5.676;2023-04-23T13:39:45;13.30;99.90
24470;DHT22;12635;50.852;5.676;2023-04-23T13:42:13;13.30;99.90
24470;DHT22;12635;50.852;5.676;2023-04-23T13:44:40;13.20;99.90
24470;DHT22;12635;50.852;5.676;2023-04-23T13:47:07;13.20;99.90
24470;DHT22;12635;50.852;5.676;2023-04-23T13:49:34;13.20;99.90
24470;DHT22;12635;50.852;5.676;2023-04-23T13:52:01;13.20;99.90
24470;DHT22;12635;50.852;5.676;2023-04-23T13:54:30;13.30;99.90
24470;DHT22;12635;50.852;5.676;2023-04-23T13:56:57;13.20;99.90
24470;DHT22;12635;50.852;5.676;2023-04-23T13:59:26;13.20;99.90
24470;DHT22;12635;50.852;5.676;2023-04-23T14:01:53;13.20;99.90
24470;DHT22;12635;50.852;5.676;2023-04-23T14:04:20;13.10;99.90
24470;DHT22;12635;50.852;5.676;2023-04-23T14:06:48;13.10;99.90
24470;DHT22;12635;50.852;5.676;2023-04-23T14:09:15;13.10;99.90
24470;DHT22;12635;50.852;5.676;2023-04-23T14:11:43;13.10;99.90
24470;DHT22;12635;50.852;5.676;2023-04-23T14:14:10;13.10;99.90
24470;DHT22;12635;50.852;5.676;2023-04-23T14:16:38;13.10;99.90
24470;DHT22;12635;50.852;5.676;2023-04-23T14:19:05;13.10;99.90
24470;DHT22;12635;50.852;5.676;2023-04-23T14:21:32;13.20;99.90
24470;DHT22;12635;50.852;5.676;2023-04-23T14:24:00;13.10;99.90
24470;DHT22;12635;50.852;5.676;2023-04-23T14:26:31;13.10;99.90
24470;DHT22;12635;50.852;5.676;2023-04-23T14:29:01;13.10;99.90
24470;DHT22;12635;50.852;5.676;2023-04-23T14:31:29;13.10;99.90
24470;DHT22;12635;50.852;5.676;2023-04-23T14:33:57;13.10;99.90
24470;DHT22;12635;50.852;5.676;2023-04-23T14:36:24;13.00;99.90
24470;DHT22;12635;50.852;5.676;2023-04-23T14:38:51;13.00;99.90
24470;DHT22;12635;50.852;5.676;2023-04-23T14:41:18;12.90;99.90
24470;DHT22;12635;50.852;5.676;2023-04-23T14:43:45;12.90;99.90
24470;DHT22;12635;50.852;5.676;2023-04-23T14:46:11;13.00;99.90
24470;DHT22;12635;50.852;5.676;2023-04-23T14:48:38;13.10;99.90
24470;DHT22;12635;50.852;5.676;2023-04-23T14:51:06;13.20;99.90
24470;DHT22;12635;50.852;5.676;2023-04-23T14:53:33;13.20;99.90
24470;DHT22;12635;50.852;5.676;2023-04-23T14:56:00;13.20;99.90
24470;DHT22;12635;50.852;5.676;2023-04-23T14:58:27;13.20;99.90
24470;DHT22;12635;50.852;5.676;2023-04-23T15:00:54;13.20;99.90
24470;DHT22;12635;50.852;5.676;2023-04-23T15:03:21;13.40;99.90
24470;DHT22;12635;50.852;5.676;2023-04-23T15:05:47;13.60;99.90
24470;DHT22;12635;50.852;5.676;2023-04-23T15:08:16;13.80;99.90
24470;DHT22;12635;50.852;5.676;2023-04-23T15:10:42;14.10;99.90
24470;DHT22;12635;50.852;5.676;2023-04-23T15:13:23;14.40;99.90
24470;DHT22;12635;50.852;5.676;2023-04-23T15:15:55;14.80;99.90
24470;DHT22;12635;50.852;5.676;2023-04-23T15:18:26;14.80;99.90
24470;DHT22;12635;50.852;5.676;2023-04-23T15:20:53;14.90;99.90
24470;DHT22;12635;50.852;5.676;2023-04-23T15:23:21;14.90;99.90
24470;DHT22;12635;50.852;5.676;2023-04-23T15:25:49;14.80;99.90
24470;DHT22;12635;50.852;5.676;2023-04-23T15:28:16;14.80;99.90
24470;DHT22;12635;50.852;5.676;2023-04-23T15:30:43;14.90;99.90
24470;DHT22;12635;50.852;5.676;2023-04-23T15:33:12;14.70;99.90
24470;DHT22;12635;50.852;5.676;2023-04-23T15:35:38;14.60;99.90
24470;DHT22;12635;50.852;5.676;2023-04-23T15:38:05;14.60;99.90